sensor_id;sensor_type;location;lat;lon;timestamp;P1;durP1;ratioP1;P2;durP2;ratioP2
2061;SDS011;11070;51.336;12.340;2023-06-10T00:01:29;7.03;;;6.43;;
2061;SDS011;11070;51.336;12.340;2023-06-10T00:03:55;7.00;;;6.30;;
2061;SDS011;11070;51.336;12.340;2023-06-10T00:06:20;7.90;;;6.23;;
2061;SDS011;11070;51.336;12.340;2023-06-10T00:08:49;7.37;;;6.67;;
2061;SDS011;11070;51.336;12.340;2023-06-10T00:11:15;7.03;;;6.32;;
2061;SDS011;11070;51.336;12.340;2023-06-10T00:13:41;7.30;;;6.63;;
2061;SDS011;11070;51.336;12.340;2023-06-10T00:16:06;7.57;;;6.87;;
2061;SDS011;11070;51.336;12.340;2023-06-10T00:18:32;6.47;;;5.87;;
2061;SDS011;11070;51.336;12.340;2023-06-10T00:20:58;5.87;;;5.37;;
2061;SDS011;11070;51.336;12.340;2023-06-10T00:23:29;7.43;;;6.53;;
2061;SDS011;11070;51.336;12.340;2023-06-10T00:25:58;6.90;;;6.20;;
2061;SDS011;11070;51.336;12.340;2023-06-10T00:28:24;6.82;;;6.15;;
2061;SDS011;11070;51.336;12.340;2023-06-10T00:30:50;8.63;;;7.47;;
2061;SDS011;11070;51.336;12.340;2023-06-10T00:33:16;7.18;;;6.47;;
2061;SDS011;11070;51.336;12.340;2023-06-10T00:35:42;9.23;;;6.90;;
2061;SDS011;11070;51.336;12.340;2023-06-10T00:38:07;6.80;;;6.20;;
2061;SDS011;11070;51.336;12.340;2023-06-10T00:40:35;7.17;;;6.37;;
2061;SDS011;11070;51.336;12.340;2023-06-10T00:43:05;8.80;;;6.40;;
2061;SDS011;11070;51.336;12.340;2023-06-10T00:45:31;7.70;;;6.70;;
2061;SDS011;11070;51.336;12.340;2023-06-10T00:47:58;6.90;;;6.30;;
2061;SDS011;11070;51.336;12.340;2023-06-10T00:50:24;9.20;;;6.70;;
2061;SDS011;11070;51.336;12.340;2023-06-10T00:52:50;7.60;;;6.70;;
2061;SDS011;11070;51.336;12.340;2023-06-10T00:55:17;8.23;;;6.50;;
2061;SDS011;11070;51.336;12.340;2023-06-10T00:57:44;7.20;;;6.20;;
2061;SDS011;11070;51.336;12.340;2023-06-10T01:00:11;6.73;;;6.03;;
2061;SDS011;11070;51.336;12.340;2023-06-10T01:02:38;10.32;;;6.85;;
2061;SDS011;11070;51.336;12.340;2023-06-10T01:05:03;7.10;;;6.50;;
2061;SDS011;11070;51.336;12.340;2023-06-10T01:12:33;9.95;;;6.55;;
2061;SDS011;11070;51.336;12.340;2023-06-10T01:15:04;6.77;;;6.00;;
2061;SDS011;11070;51.336;12.340;2023-06-10T01:17:33;8.10;;;7.30;;
2061;SDS011;11070;51.336;12.340;2023-06-10T01:19:59;7.80;;;7.00;;
2061;SDS011;11070;51.336;12.340;2023-06-10T01:22:27;8.23;;;7.43;;
2061;SDS011;11070;51.336;12.340;2023-06-10T01:25:01;8.20;;;7.40;;
2061;SDS011;11070;51.336;12.340;2023-06-10T01:27:29;9.68;;;8.77;;
2061;SDS011;11070;51.336;12.340;2023-06-10T01:30:00;9.40;;;7.75;;
2061;SDS011;11070;51.336;12.340;2023-06-10T01:32:44;9.40;;;7.93;;
2061;SDS011;11070;51.336;12.340;2023-06-10T01:35:13;9.80;;;8.40;;
2061;SDS011;11070;51.336;12.340;2023-06-10T01:37:39;8.98;;;8.00;;
2061;SDS011;11070;51.336;12.340;2023-06-10T01:40:08;12.50;;;9.32;;
2061;SDS011;11070;51.336;12.340;2023-06-10T01:42:35;10.60;;;9.40;;
2061;SDS011;11070;51.336;12.340;2023-06-10T01:45:01;10.63;;;9.40;;
2061;SDS011;11070;51.336;12.340;2023-06-10T01:47:27;15.20;;;10.60;;
2061;SDS011;11070;51.336;12.340;2023-06-10T01:49:52;11.70;;;10.50;;
2061;SDS011;11070;51.336;12.340;2023-06-10T01:52:18;10.77;;;9.70;;
2061;SDS011;11070;51.336;12.340;2023-06-10T01:54:44;15.17;;;10.90;;
2061;SDS011;11070;51.336;12.340;2023-06-10T01:57:09;11.87;;;10.40;;
2061;SDS011;11070;51.336;12.340;2023-06-10T01:59:35;12.35;;;10.95;;
2061;SDS011;11070;51.336;12.340;2023-06-10T02:02:02;11.10;;;10.10;;
2061;SDS011;11070;51.336;12.340;2023-06-10T02:04:29;11.45;;;10.10;;
2061;SDS011;11070;51.336;12.340;2023-06-10T02:06:54;13.20;;;10.00;;
2061;SDS011;11070;51.336;12.340;2023-06-10T02:09:20;11.82;;;10.68;;
2061;SDS011;11070;51.336;12.340;2023-06-10T02:11:47;11.50;;;9.45;;
2061;SDS011;11070;51.336;12.340;2023-06-10T02:14:14;10.88;;;9.00;;
2061;SDS011;11070;51.336;12.340;2023-06-10T02:16:40;11.52;;;9.75;;
2061;SDS011;11070;51.336;12.340;2023-06-10T02:19:05;11.00;;;9.47;;
2061;SDS011;11070;51.336;12.340;2023-06-10T02:21:32;9.65;;;8.70;;
2061;SDS011;11070;51.336;12.340;2023-06-10T02:23:59;12.57;;;9.90;;
2061;SDS011;11070;51.336;12.340;2023-06-10T02:26:25;10.25;;;9.30;;
2061;SDS011;11070;51.336;12.340;2023-06-10T02:28:51;9.63;;;8.50;;
2061;SDS011;11070;51.336;12.340;2023-06-10T02:31:17;11.17;;;10.07;;
2061;SDS011;11070;51.336;12.340;2023-06-10T02:33:43;10.97;;;9.50;;
2061;SDS011;11070;51.336;12.340;2023-06-10T02:36:09;11.80;;;9.85;;
2061;SDS011;11070;51.336;12.340;2023-06-10T02:38:40;11.20;;;9.30;;
2061;SDS011;11070;51.336;12.340;2023-06-10T02:41:07;11.20;;;10.00;;
2061;SDS011;11070;51.336;12.340;2023-06-10T02:43:32;11.90;;;9.40;;
2061;SDS011;11070;51.336;12.340;2023-06-10T02:45:58;11.40;;;10.30;;
2061;SDS011;11070;51.336;12.340;2023-06-10T02:48:24;10.60;;;9.50;;
2061;SDS011;11070;51.336;12.340;2023-06-10T02:50:50;11.60;;;10.50;;
2061;SDS011;11070;51.336;12.340;2023-06-10T02:53:15;11.50;;;10.30;;
2061;SDS011;11070;51.336;12.340;2023-06-10T02:55:41;12.57;;;10.43;;
2061;SDS011;11070;51.336;12.340;2023-06-10T02:58:07;12.02;;;9.65;;
2061;SDS011;11070;51.336;12.340;2023-06-10T03:00:33;10.90;;;9.50;;
2061;SDS011;11070;51.336;12.340;2023-06-10T03:03:00;11.00;;;9.90;;
2061;SDS011;11070;51.336;12.340;2023-06-10T03:05:28;10.60;;;9.50;;
2061;SDS011;11070;51.336;12.340;2023-06-10T03:07:54;10.63;;;9.52;;
2061;SDS011;11070;51.336;12.340;2023-06-10T03:10:20;10.10;;;9.10;;
2061;SDS011;11070;51.336;12.340;2023-06-10T03:12:46;9.90;;;9.00;;
2061;SDS011;11070;51.336;12.340;2023-06-10T03:15:11;20.63;;;9.40;;
2061;SDS011;11070;51.336;12.340;2023-06-10T03:17:38;9.68;;;8.73;;
2061;SDS011;11070;51.336;12.340;2023-06-10T03:20:03;10.40;;;9.33;;
2061;SDS011;11070;51.336;12.340;2023-06-10T03:22:35;10.80;;;9.10;;
2061;SDS011;11070;51.336;12.340;2023-06-10T03:25:03;9.18;;;8.20;;
2061;SDS011;11070;51.336;12.340;2023-06-10T03:27:30;9.57;;;8.68;;
2061;SDS011;11070;51.336;12.340;2023-06-10T03:29:56;9.85;;;8.98;;
2061;SDS011;11070;51.336;12.340;2023-06-10T03:32:22;9.47;;;8.60;;
2061;SDS011;11070;51.336;12.340;2023-06-10T03:34:48;9.98;;;9.02;;
2061;SDS011;11070;51.336;12.340;2023-06-10T03:37:14;10.43;;;9.23;;
2061;SDS011;11070;51.336;12.340;2023-06-10T03:39:40;10.13;;;9.13;;
2061;SDS011;11070;51.336;12.340;2023-06-10T03:42:06;9.87;;;8.90;;
2061;SDS011;11070;51.336;12.340;2023-06-10T03:44:31;10.23;;;9.20;;
2061;SDS011;11070;51.336;12.340;2023-06-10T03:46:57;11.37;;;10.17;;
2061;SDS011;11070;51.336;12.340;2023-06-10T03:49:24;11.82;;;9.30;;
2061;SDS011;11070;51.336;12.340;2023-06-10T03:51:52;11.40;;;10.10;;
2061;SDS011;11070;51.336;12.340;2023-06-10T03:54:17;10.07;;;9.17;;
2061;SDS011;11070;51.336;12.340;2023-06-10T03:56:43;9.83;;;8.83;;
2061;SDS011;11070;51.336;12.340;2023-06-10T03:59:09;10.27;;;9.30;;
2061;SDS011;11070;51.336;12.340;2023-06-10T04:01:35;11.20;;;9.97;;
2061;SDS011;11070;51.336;12.340;2023-06-10T04:04:02;10.50;;;9.57;;
2061;SDS011;11070;51.336;12.340;2023-06-10T04:06:28;10.00;;;9.13;;
2061;SDS011;11070;51.336;12.340;2023-06-10T04:08:54;10.03;;;9.13;;
2061;SDS011;11070;51.336;12.340;2023-06-10T04:11:21;9.95;;;8.68;;
2061;SDS011;11070;51.336;12.340;2023-06-10T04:13:49;11.85;;;9.98;;
2061;SDS011;11070;51.336;12.340;2023-06-10T04:16:14;11.47;;;10.10;;
2061;SDS011;11070;51.336;12.340;2023-06-10T04:18:41;10.30;;;9.40;;
2061;SDS011;11070;51.336;12.340;2023-06-10T04:21:07;11.45;;;9.70;;
2061;SDS011;11070;51.336;12.340;2023-06-10T04:23:34;12.82;;;10.27;;
2061;SDS011;11070;51.336;12.340;2023-06-10T04:26:01;11.30;;;10.13;;
2061;SDS011;11070;51.336;12.340;2023-06-10T04:28:27;11.17;;;9.90;;
2061;SDS011;11070;51.336;12.340;2023-06-10T04:30:53;10.53;;;9.53;;
2061;SDS011;11070;51.336;12.340;2023-06-10T04:33:19;10.40;;;9.50;;
2061;SDS011;11070;51.336;12.340;2023-06-10T04:35:44;10.73;;;9.40;;
2061;SDS011;11070;51.336;12.340;2023-06-10T04:38:12;11.50;;;10.35;;
2061;SDS011;11070;51.336;12.340;2023-06-10T04:40:38;17.08;;;10.32;;
2061;SDS011;11070;51.336;12.340;2023-06-10T04:43:05;11.23;;;9.50;;
2061;SDS011;11070;51.336;12.340;2023-06-10T04:45:30;11.33;;;10.10;;
2061;SDS011;11070;51.336;12.340;2023-06-10T04:47:56;10.63;;;9.63;;
2061;SDS011;11070;51.336;12.340;2023-06-10T04:50:23;11.75;;;9.60;;
2061;SDS011;11070;51.336;12.340;2023-06-10T04:52:48;11.10;;;9.97;;
2061;SDS011;11070;51.336;12.340;2023-06-10T04:55:15;11.30;;;9.83;;
2061;SDS011;11070;51.336;12.340;2023-06-10T04:57:41;11.32;;;9.93;;
2061;SDS011;11070;51.336;12.340;2023-06-10T05:00:07;10.57;;;9.50;;
2061;SDS011;11070;51.336;12.340;2023-06-10T05:02:33;11.18;;;10.02;;
2061;SDS011;11070;51.336;12.340;2023-06-10T05:04:59;11.23;;;10.13;;
2061;SDS011;11070;51.336;12.340;2023-06-10T05:07:25;11.10;;;10.00;;
2061;SDS011;11070;51.336;12.340;2023-06-10T05:09:51;11.25;;;10.07;;
2061;SDS011;11070;51.336;12.340;2023-06-10T05:12:16;11.10;;;10.00;;
2061;SDS011;11070;51.336;12.340;2023-06-10T05:14:42;11.70;;;10.50;;
2061;SDS011;11070;51.336;12.340;2023-06-10T05:17:09;12.00;;;10.80;;
2061;SDS011;11070;51.336;12.340;2023-06-10T05:19:35;11.70;;;10.50;;
2061;SDS011;11070;51.336;12.340;2023-06-10T05:22:02;11.82;;;10.73;;
2061;SDS011;11070;51.336;12.340;2023-06-10T05:24:28;11.63;;;10.48;;
2061;SDS011;11070;51.336;12.340;2023-06-10T05:26:54;11.70;;;10.50;;
2061;SDS011;11070;51.336;12.340;2023-06-10T05:29:19;11.57;;;10.40;;
2061;SDS011;11070;51.336;12.340;2023-06-10T05:31:45;12.37;;;11.20;;
2061;SDS011;11070;51.336;12.340;2023-06-10T05:34:11;19.30;;;11.90;;
2061;SDS011;11070;51.336;12.340;2023-06-10T05:36:36;12.53;;;10.13;;
2061;SDS011;11070;51.336;12.340;2023-06-10T05:39:02;12.10;;;10.90;;
2061;SDS011;11070;51.336;12.340;2023-06-10T05:41:28;11.40;;;10.20;;
2061;SDS011;11070;51.336;12.340;2023-06-10T05:43:54;11.93;;;10.73;;
2061;SDS011;11070;51.336;12.340;2023-06-10T05:46:20;11.20;;;10.17;;
2061;SDS011;11070;51.336;12.340;2023-06-10T05:48:45;13.40;;;11.00;;
2061;SDS011;11070;51.336;12.340;2023-06-10T05:51:11;11.50;;;10.37;;
2061;SDS011;11070;51.336;12.340;2023-06-10T05:53:37;11.67;;;10.47;;
2061;SDS011;11070;51.336;12.340;2023-06-10T05:56:03;11.65;;;10.55;;
2061;SDS011;11070;51.336;12.340;2023-06-10T05:58:29;11.43;;;10.43;;
2061;SDS011;11070;51.336;12.340;2023-06-10T06:00:55;13.00;;;11.70;;
2061;SDS011;11070;51.336;12.340;2023-06-10T06:03:21;11.20;;;10.20;;
2061;SDS011;11070;51.336;12.340;2023-06-10T06:05:46;11.57;;;10.47;;
2061;SDS011;11070;51.336;12.340;2023-06-10T06:08:12;12.07;;;10.80;;
2061;SDS011;11070;51.336;12.340;2023-06-10T06:10:43;10.75;;;9.65;;
2061;SDS011;11070;51.336;12.340;2023-06-10T06:13:13;12.60;;;11.40;;
2061;SDS011;11070;51.336;12.340;2023-06-10T06:15:38;11.73;;;10.60;;
2061;SDS011;11070;51.336;12.340;2023-06-10T06:18:04;15.10;;;11.37;;
2061;SDS011;11070;51.336;12.340;2023-06-10T06:20:30;12.13;;;10.90;;
2061;SDS011;11070;51.336;12.340;2023-06-10T06:22:55;12.67;;;11.37;;
2061;SDS011;11070;51.336;12.340;2023-06-10T06:25:21;14.53;;;11.57;;
2061;SDS011;11070;51.336;12.340;2023-06-10T06:27:47;12.73;;;11.43;;
2061;SDS011;11070;51.336;12.340;2023-06-10T06:30:12;16.17;;;11.50;;
2061;SDS011;11070;51.336;12.340;2023-06-10T06:32:41;13.23;;;11.90;;
2061;SDS011;11070;51.336;12.340;2023-06-10T06:35:07;11.77;;;10.40;;
2061;SDS011;11070;51.336;12.340;2023-06-10T06:37:33;12.35;;;11.15;;
2061;SDS011;11070;51.336;12.340;2023-06-10T06:39:59;13.52;;;12.13;;
2061;SDS011;11070;51.336;12.340;2023-06-10T06:42:25;12.37;;;11.27;;
2061;SDS011;11070;51.336;12.340;2023-06-10T06:44:51;12.27;;;11.07;;
2061;SDS011;11070;51.336;12.340;2023-06-10T06:47:16;12.50;;;11.23;;
2061;SDS011;11070;51.336;12.340;2023-06-10T06:49:45;12.60;;;11.38;;
2061;SDS011;11070;51.336;12.340;2023-06-10T06:52:12;13.05;;;11.65;;
2061;SDS011;11070;51.336;12.340;2023-06-10T06:54:38;14.30;;;12.10;;
2061;SDS011;11070;51.336;12.340;2023-06-10T06:57:03;13.93;;;12.40;;
2061;SDS011;11070;51.336;12.340;2023-06-10T06:59:30;13.07;;;11.93;;
2061;SDS011;11070;51.336;12.340;2023-06-10T07:01:56;13.33;;;11.93;;
2061;SDS011;11070;51.336;12.340;2023-06-10T07:04:21;13.37;;;12.00;;
2061;SDS011;11070;51.336;12.340;2023-06-10T07:06:48;12.63;;;11.33;;
2061;SDS011;11070;51.336;12.340;2023-06-10T07:09:13;12.33;;;11.13;;
2061;SDS011;11070;51.336;12.340;2023-06-10T07:11:39;13.23;;;11.70;;
2061;SDS011;11070;51.336;12.340;2023-06-10T07:14:05;12.80;;;11.60;;
2061;SDS011;11070;51.336;12.340;2023-06-10T07:16:31;12.43;;;11.13;;
2061;SDS011;11070;51.336;12.340;2023-06-10T07:18:57;13.17;;;11.80;;
2061;SDS011;11070;51.336;12.340;2023-06-10T07:21:23;13.53;;;12.20;;
2061;SDS011;11070;51.336;12.340;2023-06-10T07:23:49;12.80;;;11.50;;
2061;SDS011;11070;51.336;12.340;2023-06-10T07:26:17;11.90;;;10.68;;
2061;SDS011;11070;51.336;12.340;2023-06-10T07:28:43;13.87;;;12.43;;
2061;SDS011;11070;51.336;12.340;2023-06-10T07:31:08;13.03;;;11.83;;
2061;SDS011;11070;51.336;12.340;2023-06-10T07:33:36;12.43;;;11.33;;
2061;SDS011;11070;51.336;12.340;2023-06-10T07:36:03;13.00;;;11.73;;
2061;SDS011;11070;51.336;12.340;2023-06-10T07:38:29;11.87;;;10.67;;
2061;SDS011;11070;51.336;12.340;2023-06-10T07:40:54;12.77;;;11.60;;
2061;SDS011;11070;51.336;12.340;2023-06-10T07:43:20;13.53;;;12.27;;
2061;SDS011;11070;51.336;12.340;2023-06-10T07:45:45;13.20;;;11.87;;
2061;SDS011;11070;51.336;12.340;2023-06-10T07:48:11;12.33;;;11.20;;
2061;SDS011;11070;51.336;12.340;2023-06-10T07:50:37;12.00;;;10.80;;
2061;SDS011;11070;51.336;12.340;2023-06-10T07:53:02;13.47;;;12.07;;
2061;SDS011;11070;51.336;12.340;2023-06-10T07:55:29;13.10;;;11.80;;
2061;SDS011;11070;51.336;12.340;2023-06-10T07:57:54;14.13;;;11.97;;
2061;SDS011;11070;51.336;12.340;2023-06-10T08:00:20;12.90;;;11.67;;
2061;SDS011;11070;51.336;12.340;2023-06-10T08:02:46;13.73;;;12.33;;
2061;SDS011;11070;51.336;12.340;2023-06-10T08:05:12;13.03;;;12.03;;
2061;SDS011;11070;51.336;12.340;2023-06-10T08:07:41;16.13;;;13.20;;
2061;SDS011;11070;51.336;12.340;2023-06-10T08:10:07;14.23;;;12.90;;
2061;SDS011;11070;51.336;12.340;2023-06-10T08:12:33;14.23;;;12.70;;
2061;SDS011;11070;51.336;12.340;2023-06-10T08:15:00;13.33;;;12.07;;
2061;SDS011;11070;51.336;12.340;2023-06-10T08:17:26;15.63;;;12.47;;
2061;SDS011;11070;51.336;12.340;2023-06-10T08:19:51;13.77;;;12.30;;
2061;SDS011;11070;51.336;12.340;2023-06-10T08:22:17;13.87;;;12.50;;
2061;SDS011;11070;51.336;12.340;2023-06-10T08:24:43;11.90;;;10.80;;
2061;SDS011;11070;51.336;12.340;2023-06-10T08:27:08;12.53;;;11.33;;
2061;SDS011;11070;51.336;12.340;2023-06-10T08:29:35;13.60;;;11.73;;
2061;SDS011;11070;51.336;12.340;2023-06-10T08:32:01;12.93;;;11.53;;
2061;SDS011;11070;51.336;12.340;2023-06-10T08:34:27;14.07;;;12.77;;
2061;SDS011;11070;51.336;12.340;2023-06-10T08:36:52;13.90;;;12.57;;
2061;SDS011;11070;51.336;12.340;2023-06-10T08:39:20;15.60;;;13.43;;
2061;SDS011;11070;51.336;12.340;2023-06-10T08:44:46;13.00;;;11.80;;
2061;SDS011;11070;51.336;12.340;2023-06-10T08:47:14;12.70;;;11.50;;
2061;SDS011;11070;51.336;12.340;2023-06-10T08:49:43;13.23;;;12.00;;
2061;SDS011;11070;51.336;12.340;2023-06-10T08:52:14;14.40;;;10.93;;
2061;SDS011;11070;51.336;12.340;2023-06-10T08:54:57;11.80;;;10.70;;
2061;SDS011;11070;51.336;12.340;2023-06-10T08:57:25;12.17;;;11.17;;
2061;SDS011;11070;51.336;12.340;2023-06-10T08:59:56;11.83;;;10.80;;
2061;SDS011;11070;51.336;12.340;2023-06-10T09:02:22;12.90;;;11.80;;
2061;SDS011;11070;51.336;12.340;2023-06-10T09:04:49;12.10;;;11.00;;
2061;SDS011;11070;51.336;12.340;2023-06-10T09:07:16;11.90;;;10.80;;
2061;SDS011;11070;51.336;12.340;2023-06-10T09:09:43;12.23;;;11.13;;
2061;SDS011;11070;51.336;12.340;2023-06-10T09:12:09;11.90;;;10.83;;
2061;SDS011;11070;51.336;12.340;2023-06-10T09:14:36;12.40;;;11.20;;
2061;SDS011;11070;51.336;12.340;2023-06-10T09:17:02;12.87;;;11.87;;
2061;SDS011;11070;51.336;12.340;2023-06-10T09:19:29;12.90;;;11.70;;
2061;SDS011;11070;51.336;12.340;2023-06-10T09:21:55;12.33;;;11.13;;
2061;SDS011;11070;51.336;12.340;2023-06-10T09:24:22;11.17;;;10.30;;
2061;SDS011;11070;51.336;12.340;2023-06-10T09:26:48;11.90;;;10.90;;
2061;SDS011;11070;51.336;12.340;2023-06-10T09:29:15;10.87;;;9.87;;
2061;SDS011;11070;51.336;12.340;2023-06-10T09:31:42;11.93;;;10.93;;
2061;SDS011;11070;51.336;12.340;2023-06-10T09:34:09;11.53;;;10.50;;
2061;SDS011;11070;51.336;12.340;2023-06-10T09:36:39;11.00;;;10.00;;
2061;SDS011;11070;51.336;12.340;2023-06-10T09:39:12;10.80;;;9.90;;
2061;SDS011;11070;51.336;12.340;2023-06-10T09:41:41;10.93;;;9.87;;
2061;SDS011;11070;51.336;12.340;2023-06-10T09:44:13;11.07;;;10.17;;
2061;SDS011;11070;51.336;12.340;2023-06-10T09:46:40;11.13;;;10.10;;
2061;SDS011;11070;51.336;12.340;2023-06-10T09:49:06;11.10;;;9.93;;
2061;SDS011;11070;51.336;12.340;2023-06-10T09:51:32;12.10;;;11.00;;
2061;SDS011;11070;51.336;12.340;2023-06-10T09:53:58;12.40;;;11.40;;
2061;SDS011;11070;51.336;12.340;2023-06-10T09:56:33;12.90;;;11.60;;
2061;SDS011;11070;51.336;12.340;2023-06-10T09:59:00;11.00;;;10.07;;
2061;SDS011;11070;51.336;12.340;2023-06-10T10:01:26;11.00;;;10.20;;
2061;SDS011;11070;51.336;12.340;2023-06-10T10:03:52;11.07;;;10.07;;
2061;SDS011;11070;51.336;12.340;2023-06-10T10:06:18;11.13;;;10.13;;
2061;SDS011;11070;51.336;12.340;2023-06-10T10:08:45;12.53;;;11.43;;
2061;SDS011;11070;51.336;12.340;2023-06-10T10:11:18;11.70;;;10.70;;
2061;SDS011;11070;51.336;12.340;2023-06-10T10:13:47;11.33;;;10.43;;
2061;SDS011;11070;51.336;12.340;2023-06-10T10:16:17;10.87;;;10.00;;
2061;SDS011;11070;51.336;12.340;2023-06-10T10:19:01;11.20;;;10.30;;
2061;SDS011;11070;51.336;12.340;2023-06-10T10:21:34;11.83;;;10.63;;
2061;SDS011;11070;51.336;12.340;2023-06-10T10:24:12;11.20;;;10.30;;
2061;SDS011;11070;51.336;12.340;2023-06-10T10:26:43;11.23;;;10.30;;
2061;SDS011;11070;51.336;12.340;2023-06-10T10:31:51;11.40;;;10.50;;
2061;SDS011;11070;51.336;12.340;2023-06-10T10:34:21;11.93;;;10.83;;
2061;SDS011;11070;51.336;12.340;2023-06-10T10:36:55;11.60;;;10.70;;
2061;SDS011;11070;51.336;12.340;2023-06-10T10:39:21;11.47;;;10.60;;
2061;SDS011;11070;51.336;12.340;2023-06-10T10:41:47;12.67;;;11.67;;
2061;SDS011;11070;51.336;12.340;2023-06-10T10:44:14;11.90;;;10.80;;
2061;SDS011;11070;51.336;12.340;2023-06-10T10:46:41;12.60;;;11.70;;
2061;SDS011;11070;51.336;12.340;2023-06-10T10:49:14;12.77;;;11.77;;
2061;SDS011;11070;51.336;12.340;2023-06-10T10:54:29;11.60;;;10.60;;
2061;SDS011;11070;51.336;12.340;2023-06-10T11:02:56;10.20;;;9.37;;
2061;SDS011;11070;51.336;12.340;2023-06-10T11:05:06;11.23;;;10.33;;
2061;SDS011;11070;51.336;12.340;2023-06-10T11:07:33;11.00;;;10.03;;
2061;SDS011;11070;51.336;12.340;2023-06-10T11:12:26;11.40;;;10.50;;
2061;SDS011;11070;51.336;12.340;2023-06-10T11:15:05;11.47;;;10.47;;
2061;SDS011;11070;51.336;12.340;2023-06-10T11:17:31;10.83;;;9.87;;
2061;SDS011;11070;51.336;12.340;2023-06-10T11:19:58;10.93;;;9.00;;
2061;SDS011;11070;51.336;12.340;2023-06-10T11:22:24;9.63;;;9.03;;
2061;SDS011;11070;51.336;12.340;2023-06-10T11:24:52;11.07;;;10.27;;
2061;SDS011;11070;51.336;12.340;2023-06-10T11:27:19;9.50;;;8.70;;
2061;SDS011;11070;51.336;12.340;2023-06-10T11:29:55;9.87;;;9.17;;
2061;SDS011;11070;51.336;12.340;2023-06-10T11:32:21;10.53;;;9.70;;
2061;SDS011;11070;51.336;12.340;2023-06-10T11:34:54;10.10;;;9.40;;
2061;SDS011;11070;51.336;12.340;2023-06-10T11:37:20;10.40;;;9.50;;
2061;SDS011;11070;51.336;12.340;2023-06-10T11:39:47;10.80;;;9.90;;
2061;SDS011;11070;51.336;12.340;2023-06-10T11:42:16;10.60;;;9.80;;
2061;SDS011;11070;51.336;12.340;2023-06-10T11:44:52;10.93;;;10.13;;
2061;SDS011;11070;51.336;12.340;2023-06-10T11:47:19;11.10;;;10.10;;
2061;SDS011;11070;51.336;12.340;2023-06-10T11:49:46;11.53;;;10.67;;
2061;SDS011;11070;51.336;12.340;2023-06-10T11:52:28;11.47;;;10.67;;
2061;SDS011;11070;51.336;12.340;2023-06-10T11:54:57;11.10;;;10.30;;
2061;SDS011;11070;51.336;12.340;2023-06-10T11:57:25;12.27;;;11.37;;
2061;SDS011;11070;51.336;12.340;2023-06-10T11:59:50;12.50;;;10.80;;
2061;SDS011;11070;51.336;12.340;2023-06-10T12:02:17;11.60;;;10.50;;
2061;SDS011;11070;51.336;12.340;2023-06-10T12:04:44;10.87;;;9.77;;
2061;SDS011;11070;51.336;12.340;2023-06-10T12:07:16;11.10;;;10.20;;
2061;SDS011;11070;51.336;12.340;2023-06-10T12:09:44;10.50;;;9.70;;
2061;SDS011;11070;51.336;12.340;2023-06-10T12:12:09;9.67;;;8.97;;
2061;SDS011;11070;51.336;12.340;2023-06-10T12:14:53;13.73;;;12.63;;
2061;SDS011;11070;51.336;12.340;2023-06-10T12:19:58;11.20;;;10.40;;
2061;SDS011;11070;51.336;12.340;2023-06-10T12:22:37;12.40;;;11.50;;
2061;SDS011;11070;51.336;12.340;2023-06-10T12:25:07;10.67;;;9.83;;
2061;SDS011;11070;51.336;12.340;2023-06-10T12:27:35;11.77;;;10.80;;
2061;SDS011;11070;51.336;12.340;2023-06-10T12:30:02;10.67;;;9.97;;
2061;SDS011;11070;51.336;12.340;2023-06-10T12:32:37;12.77;;;11.47;;
2061;SDS011;11070;51.336;12.340;2023-06-10T12:35:08;9.80;;;9.00;;
2061;SDS011;11070;51.336;12.340;2023-06-10T12:37:35;10.03;;;9.33;;
2061;SDS011;11070;51.336;12.340;2023-06-10T12:40:02;11.80;;;10.90;;
2061;SDS011;11070;51.336;12.340;2023-06-10T12:42:29;9.40;;;8.80;;
2061;SDS011;11070;51.336;12.340;2023-06-10T12:44:56;11.10;;;10.10;;
2061;SDS011;11070;51.336;12.340;2023-06-10T12:47:36;12.07;;;11.17;;
2061;SDS011;11070;51.336;12.340;2023-06-10T12:50:04;14.03;;;12.93;;
2061;SDS011;11070;51.336;12.340;2023-06-10T12:52:30;10.73;;;8.67;;
2061;SDS011;11070;51.336;12.340;2023-06-10T12:54:57;9.73;;;8.87;;
2061;SDS011;11070;51.336;12.340;2023-06-10T12:57:23;9.23;;;8.53;;
2061;SDS011;11070;51.336;12.340;2023-06-10T12:59:49;9.73;;;8.20;;
2061;SDS011;11070;51.336;12.340;2023-06-10T13:02:17;7.57;;;7.07;;
2061;SDS011;11070;51.336;12.340;2023-06-10T13:04:45;8.00;;;7.30;;
2061;SDS011;11070;51.336;12.340;2023-06-10T13:07:11;8.60;;;7.80;;
2061;SDS011;11070;51.336;12.340;2023-06-10T13:09:37;8.47;;;7.57;;
2061;SDS011;11070;51.336;12.340;2023-06-10T13:12:03;8.77;;;8.17;;
2061;SDS011;11070;51.336;12.340;2023-06-10T13:14:29;9.60;;;8.73;;
2061;SDS011;11070;51.336;12.340;2023-06-10T13:16:55;9.83;;;8.43;;
2061;SDS011;11070;51.336;12.340;2023-06-10T13:19:21;9.80;;;9.10;;
2061;SDS011;11070;51.336;12.340;2023-06-10T13:21:47;9.27;;;8.57;;
2061;SDS011;11070;51.336;12.340;2023-06-10T13:24:13;10.50;;;9.80;;
2061;SDS011;11070;51.336;12.340;2023-06-10T13:26:39;10.93;;;9.93;;
2061;SDS011;11070;51.336;12.340;2023-06-10T13:29:05;12.40;;;11.50;;
2061;SDS011;11070;51.336;12.340;2023-06-10T13:31:32;9.20;;;8.50;;
2061;SDS011;11070;51.336;12.340;2023-06-10T13:33:58;9.03;;;8.20;;
2061;SDS011;11070;51.336;12.340;2023-06-10T13:36:24;8.07;;;7.50;;
2061;SDS011;11070;51.336;12.340;2023-06-10T13:38:50;7.30;;;6.80;;
2061;SDS011;11070;51.336;12.340;2023-06-10T13:41:16;7.73;;;7.13;;
2061;SDS011;11070;51.336;12.340;2023-06-10T13:43:42;7.30;;;6.70;;
2061;SDS011;11070;51.336;12.340;2023-06-10T13:46:07;7.30;;;6.80;;
2061;SDS011;11070;51.336;12.340;2023-06-10T13:48:33;7.50;;;6.80;;
2061;SDS011;11070;51.336;12.340;2023-06-10T13:51:00;6.53;;;5.97;;
2061;SDS011;11070;51.336;12.340;2023-06-10T13:53:26;6.33;;;5.80;;
2061;SDS011;11070;51.336;12.340;2023-06-10T13:55:51;5.40;;;5.10;;
2061;SDS011;11070;51.336;12.340;2023-06-10T13:58:17;5.77;;;5.37;;
2061;SDS011;11070;51.336;12.340;2023-06-10T14:00:43;6.13;;;5.63;;
2061;SDS011;11070;51.336;12.340;2023-06-10T14:03:09;5.93;;;5.50;;
2061;SDS011;11070;51.336;12.340;2023-06-10T14:05:35;5.70;;;5.20;;
2061;SDS011;11070;51.336;12.340;2023-06-10T14:08:00;5.80;;;5.40;;
2061;SDS011;11070;51.336;12.340;2023-06-10T14:10:26;5.87;;;5.47;;
2061;SDS011;11070;51.336;12.340;2023-06-10T14:12:52;5.27;;;4.93;;
2061;SDS011;11070;51.336;12.340;2023-06-10T14:15:18;4.80;;;4.50;;
2061;SDS011;11070;51.336;12.340;2023-06-10T14:17:44;4.77;;;4.47;;
2061;SDS011;11070;51.336;12.340;2023-06-10T14:20:10;4.97;;;4.57;;
2061;SDS011;11070;51.336;12.340;2023-06-10T14:22:36;4.53;;;4.23;;
2061;SDS011;11070;51.336;12.340;2023-06-10T14:25:02;5.33;;;4.97;;
2061;SDS011;11070;51.336;12.340;2023-06-10T14:27:28;4.60;;;4.30;;
2061;SDS011;11070;51.336;12.340;2023-06-10T14:29:53;4.10;;;3.90;;
2061;SDS011;11070;51.336;12.340;2023-06-10T14:32:19;5.17;;;4.77;;
2061;SDS011;11070;51.336;12.340;2023-06-10T14:34:45;5.03;;;4.70;;
2061;SDS011;11070;51.336;12.340;2023-06-10T14:37:12;4.60;;;4.30;;
2061;SDS011;11070;51.336;12.340;2023-06-10T14:39:38;4.60;;;4.20;;
2061;SDS011;11070;51.336;12.340;2023-06-10T14:42:03;4.37;;;4.17;;
2061;SDS011;11070;51.336;12.340;2023-06-10T14:44:30;5.10;;;4.80;;
2061;SDS011;11070;51.336;12.340;2023-06-10T14:46:56;7.60;;;6.90;;
2061;SDS011;11070;51.336;12.340;2023-06-10T14:49:22;5.60;;;5.17;;
2061;SDS011;11070;51.336;12.340;2023-06-10T14:51:47;5.80;;;4.87;;
2061;SDS011;11070;51.336;12.340;2023-06-10T14:54:15;9.20;;;8.50;;